KFSD/FSD METAR and TAF weather

Enter ICAO airport designator
Station Type Date Time Source
KFSD METAR 2021/02/25 15:56 UTC NOAA

KFSD 251556Z 27006KT 10SM FEW006 M01/M04 A3035 RMK AO2 SLP296 T10111044


Station Type Date Time Source
KFSD Decoded METAR 2021/02/25 15:56 UTC NOAA

SIOUX FALLS FOSS FIELD, SD, United States (KFSD) 43-35N 096-45W 434M
Feb 25, 2021 - 10:56 AM EST / 2021.02.25 1556 UTC
Wind: from the W (270 degrees) at 7 MPH (6 KT):0
Visibility: 10 mile(s):0
Sky conditions: mostly clear
Temperature: 30.0 F (-1.1 C)
Windchill: 23 F (-5 C):1
Dew Point: 24.1 F (-4.4 C)
Relative Humidity: 78%
Pressure (altimeter): 30.35 in. Hg (1027 hPa)
ob: KFSD 251556Z 27006KT 10SM FEW006 M01/M04 A3035 RMK AO2 SLP296 T10111044
cycle: 16

Station Type Date Time Source
KFSD TAF 2021/02/25 12:24 UTC NOAA

TAF KFSD 251121Z 2512/2612 26006KT P6SM SKC
FM251700 25012G18KT P6SM SKC
FM260000 18010KT P6SM SKC
FM260600 18016G25KT P6SM SKC WS020/20045KT

Example: see airport list